sensor_id;sensor_type;location;lat;lon;timestamp;temperature;humidity
32366;DHT22;18837;46.832;16.838;2022-12-18T00:00:33;3.90;96.50
32366;DHT22;18837;46.832;16.838;2022-12-18T00:02:59;3.90;96.30
32366;DHT22;18837;46.832;16.838;2022-12-18T00:05:25;3.80;96.10
32366;DHT22;18837;46.832;16.838;2022-12-18T00:07:51;3.90;96.30
32366;DHT22;18837;46.832;16.838;2022-12-18T00:10:17;3.90;96.40
32366;DHT22;18837;46.832;16.838;2022-12-18T00:19:03;3.80;96.60
32366;DHT22;18837;46.832;16.838;2022-12-18T00:21:30;3.80;96.20
32366;DHT22;18837;46.832;16.838;2022-12-18T00:23:56;3.80;96.20
32366;DHT22;18837;46.832;16.838;2022-12-18T00:26:28;3.70;96.10
32366;DHT22;18837;46.832;16.838;2022-12-18T00:28:57;3.80;96.60
32366;DHT22;18837;46.832;16.838;2022-12-18T00:31:43;3.70;96.20
32366;DHT22;18837;46.832;16.838;2022-12-18T00:34:12;3.70;96.70
32366;DHT22;18837;46.832;16.838;2022-12-18T00:36:39;3.80;96.30
32366;DHT22;18837;46.832;16.838;2022-12-18T00:39:06;3.80;96.20
32366;DHT22;18837;46.832;16.838;2022-12-18T00:41:32;3.80;96.10
32366;DHT22;18837;46.832;16.838;2022-12-18T00:44:18;3.80;95.80
32366;DHT22;18837;46.832;16.838;2022-12-18T00:53:18;3.70;96.50
32366;DHT22;18837;46.832;16.838;2022-12-18T00:55:45;3.70;96.20
32366;DHT22;18837;46.832;16.838;2022-12-18T00:58:15;3.70;96.00
32366;DHT22;18837;46.832;16.838;2022-12-18T01:00:42;3.60;96.40
32366;DHT22;18837;46.832;16.838;2022-12-18T01:03:13;3.60;96.10
32366;DHT22;18837;46.832;16.838;2022-12-18T01:05:41;3.60;96.30
32366;DHT22;18837;46.832;16.838;2022-12-18T01:08:13;3.60;96.20
32366;DHT22;18837;46.832;16.838;2022-12-18T01:10:41;3.60;96.40
32366;DHT22;18837;46.832;16.838;2022-12-18T01:13:07;3.60;96.10
32366;DHT22;18837;46.832;16.838;2022-12-18T01:15:33;3.60;96.10
32366;DHT22;18837;46.832;16.838;2022-12-18T01:17:59;3.60;96.10
32366;DHT22;18837;46.832;16.838;2022-12-18T01:20:25;3.60;96.00
32366;DHT22;18837;46.832;16.838;2022-12-18T01:26:17;3.60;96.50
32366;DHT22;18837;46.832;16.838;2022-12-18T01:28:43;4.30;96.30
32366;DHT22;18837;46.832;16.838;2022-12-18T01:33:39;3.50;96.40
32366;DHT22;18837;46.832;16.838;2022-12-18T01:36:05;3.50;96.00
32366;DHT22;18837;46.832;16.838;2022-12-18T01:38:31;3.50;96.10
32366;DHT22;18837;46.832;16.838;2022-12-18T01:41:17;3.90;96.30
32366;DHT22;18837;46.832;16.838;2022-12-18T01:43:43;3.50;96.10
32366;DHT22;18837;46.832;16.838;2022-12-18T01:46:10;4.30;96.10
32366;DHT22;18837;46.832;16.838;2022-12-18T01:48:36;3.50;96.00
32366;DHT22;18837;46.832;16.838;2022-12-18T01:51:02;3.50;95.90
32366;DHT22;18837;46.832;16.838;2022-12-18T01:53:28;3.50;95.90
32366;DHT22;18837;46.832;16.838;2022-12-18T02:02:37;3.50;96.30
32366;DHT22;18837;46.832;16.838;2022-12-18T02:05:04;4.30;96.00
32366;DHT22;18837;46.832;16.838;2022-12-18T02:18:59;3.40;96.20
32366;DHT22;18837;46.832;16.838;2022-12-18T02:21:38;3.80;96.00
32366;DHT22;18837;46.832;16.838;2022-12-18T02:24:38;3.50;95.70
32366;DHT22;18837;46.832;16.838;2022-12-18T02:27:07;3.50;96.00
32366;DHT22;18837;46.832;16.838;2022-12-18T02:29:39;3.50;95.30
32366;DHT22;18837;46.832;16.838;2022-12-18T02:32:31;4.30;95.80
32366;DHT22;18837;46.832;16.838;2022-12-18T02:35:37;3.40;96.00
32366;DHT22;18837;46.832;16.838;2022-12-18T02:38:06;3.40;96.00
32366;DHT22;18837;46.832;16.838;2022-12-18T02:40:32;3.90;95.50
32366;DHT22;18837;46.832;16.838;2022-12-18T02:43:14;4.10;95.20
32366;DHT22;18837;46.832;16.838;2022-12-18T02:45:55;4.50;95.80
32366;DHT22;18837;46.832;16.838;2022-12-18T02:48:25;3.40;95.90
32366;DHT22;18837;46.832;16.838;2022-12-18T02:54:10;3.40;95.80
32366;DHT22;18837;46.832;16.838;2022-12-18T02:56:44;3.40;95.50
32366;DHT22;18837;46.832;16.838;2022-12-18T02:59:15;3.40;95.30
32366;DHT22;18837;46.832;16.838;2022-12-18T03:04:26;3.40;95.80
32366;DHT22;18837;46.832;16.838;2022-12-18T03:10:32;3.30;95.90
32366;DHT22;18837;46.832;16.838;2022-12-18T03:13:26;3.30;96.00
32366;DHT22;18837;46.832;16.838;2022-12-18T03:15:56;3.30;96.00
32366;DHT22;18837;46.832;16.838;2022-12-18T03:18:35;3.40;95.30
32366;DHT22;18837;46.832;16.838;2022-12-18T03:21:05;3.30;95.70
32366;DHT22;18837;46.832;16.838;2022-12-18T03:23:39;3.40;95.10
32366;DHT22;18837;46.832;16.838;2022-12-18T03:26:09;4.10;95.00
32366;DHT22;18837;46.832;16.838;2022-12-18T03:28:48;4.10;95.30
32366;DHT22;18837;46.832;16.838;2022-12-18T03:31:16;3.30;95.00
32366;DHT22;18837;46.832;16.838;2022-12-18T03:34:03;3.30;94.90
32366;DHT22;18837;46.832;16.838;2022-12-18T03:36:31;3.30;95.40
32366;DHT22;18837;46.832;16.838;2022-12-18T03:38:58;3.30;94.80
32366;DHT22;18837;46.832;16.838;2022-12-18T03:45:24;3.20;95.70
32366;DHT22;18837;46.832;16.838;2022-12-18T03:50:43;3.20;95.50
32366;DHT22;18837;46.832;16.838;2022-12-18T03:56:04;3.20;95.30
32366;DHT22;18837;46.832;16.838;2022-12-18T03:58:32;3.20;95.00
32366;DHT22;18837;46.832;16.838;2022-12-18T04:01:22;3.20;95.10
32366;DHT22;18837;46.832;16.838;2022-12-18T04:03:49;3.20;95.70
32366;DHT22;18837;46.832;16.838;2022-12-18T04:06:16;3.10;95.50
32366;DHT22;18837;46.832;16.838;2022-12-18T04:08:43;3.20;95.10
32366;DHT22;18837;46.832;16.838;2022-12-18T04:11:09;3.20;95.10
32366;DHT22;18837;46.832;16.838;2022-12-18T04:13:37;3.10;94.90
32366;DHT22;18837;46.832;16.838;2022-12-18T04:16:29;3.10;94.80
32366;DHT22;18837;46.832;16.838;2022-12-18T04:19:17;3.20;95.70
32366;DHT22;18837;46.832;16.838;2022-12-18T04:21:45;3.20;95.20
32366;DHT22;18837;46.832;16.838;2022-12-18T04:24:10;3.20;94.90
32366;DHT22;18837;46.832;16.838;2022-12-18T04:26:39;3.20;94.60
32366;DHT22;18837;46.832;16.838;2022-12-18T04:29:09;3.10;95.00
32366;DHT22;18837;46.832;16.838;2022-12-18T04:31:35;3.10;94.90
32366;DHT22;18837;46.832;16.838;2022-12-18T04:34:26;3.10;94.60
32366;DHT22;18837;46.832;16.838;2022-12-18T04:36:52;3.10;95.40
32366;DHT22;18837;46.832;16.838;2022-12-18T04:39:20;3.10;94.60
32366;DHT22;18837;46.832;16.838;2022-12-18T04:41:45;3.10;94.70
32366;DHT22;18837;46.832;16.838;2022-12-18T04:44:11;3.10;94.70
32366;DHT22;18837;46.832;16.838;2022-12-18T04:46:37;3.00;94.60
32366;DHT22;18837;46.832;16.838;2022-12-18T04:55:46;3.00;95.40
32366;DHT22;18837;46.832;16.838;2022-12-18T04:58:12;3.00;94.70
32366;DHT22;18837;46.832;16.838;2022-12-18T05:00:41;3.00;94.50
32366;DHT22;18837;46.832;16.838;2022-12-18T05:03:07;3.00;94.90
32366;DHT22;18837;46.832;16.838;2022-12-18T05:05:35;3.00;94.70
32366;DHT22;18837;46.832;16.838;2022-12-18T05:08:25;2.90;94.80
32366;DHT22;18837;46.832;16.838;2022-12-18T05:11:00;2.90;95.30
32366;DHT22;18837;46.832;16.838;2022-12-18T05:13:26;2.90;95.30
32366;DHT22;18837;46.832;16.838;2022-12-18T05:15:53;2.90;94.60
32366;DHT22;18837;46.832;16.838;2022-12-18T05:18:18;2.90;94.60
32366;DHT22;18837;46.832;16.838;2022-12-18T05:20:44;2.90;94.60
32366;DHT22;18837;46.832;16.838;2022-12-18T05:23:10;2.90;94.60
32366;DHT22;18837;46.832;16.838;2022-12-18T05:26:10;2.90;94.60
32366;DHT22;18837;46.832;16.838;2022-12-18T05:29:07;2.90;95.40
32366;DHT22;18837;46.832;16.838;2022-12-18T05:31:38;2.90;95.40
32366;DHT22;18837;46.832;16.838;2022-12-18T05:34:04;2.90;94.50
32366;DHT22;18837;46.832;16.838;2022-12-18T05:36:30;2.90;94.60
32366;DHT22;18837;46.832;16.838;2022-12-18T05:38:56;2.80;94.90
32366;DHT22;18837;46.832;16.838;2022-12-18T05:41:22;2.90;94.70
32366;DHT22;18837;46.832;16.838;2022-12-18T05:44:15;2.80;94.80
32366;DHT22;18837;46.832;16.838;2022-12-18T05:46:47;2.80;95.40
32366;DHT22;18837;46.832;16.838;2022-12-18T05:49:14;2.80;94.90
32366;DHT22;18837;46.832;16.838;2022-12-18T05:51:40;2.80;94.40
32366;DHT22;18837;46.832;16.838;2022-12-18T05:54:06;2.80;94.60
32366;DHT22;18837;46.832;16.838;2022-12-18T05:56:32;2.80;94.80
32366;DHT22;18837;46.832;16.838;2022-12-18T06:02:47;2.80;95.40
32366;DHT22;18837;46.832;16.838;2022-12-18T06:05:13;2.70;95.50
32366;DHT22;18837;46.832;16.838;2022-12-18T06:07:42;2.70;94.80
32366;DHT22;18837;46.832;16.838;2022-12-18T06:10:08;2.70;95.10
32366;DHT22;18837;46.832;16.838;2022-12-18T06:12:34;2.70;95.00
32366;DHT22;18837;46.832;16.838;2022-12-18T06:15:00;2.60;94.80
32366;DHT22;18837;46.832;16.838;2022-12-18T06:17:50;2.70;94.70
32366;DHT22;18837;46.832;16.838;2022-12-18T06:20:16;2.70;95.30
32366;DHT22;18837;46.832;16.838;2022-12-18T06:22:45;2.70;94.80
32366;DHT22;18837;46.832;16.838;2022-12-18T06:25:11;2.70;95.00
32366;DHT22;18837;46.832;16.838;2022-12-18T06:27:37;2.60;94.50
32366;DHT22;18837;46.832;16.838;2022-12-18T06:30:05;2.60;95.00
32366;DHT22;18837;46.832;16.838;2022-12-18T06:36:40;2.50;95.50
32366;DHT22;18837;46.832;16.838;2022-12-18T06:39:06;2.50;95.50
32366;DHT22;18837;46.832;16.838;2022-12-18T06:41:32;2.60;94.70
32366;DHT22;18837;46.832;16.838;2022-12-18T06:43:58;2.60;94.90
32366;DHT22;18837;46.832;16.838;2022-12-18T06:46:24;2.60;94.70
32366;DHT22;18837;46.832;16.838;2022-12-18T06:48:50;2.60;94.80
32366;DHT22;18837;46.832;16.838;2022-12-18T06:51:44;2.60;94.80
32366;DHT22;18837;46.832;16.838;2022-12-18T06:54:09;2.60;95.30
32366;DHT22;18837;46.832;16.838;2022-12-18T06:56:35;2.60;94.70
32366;DHT22;18837;46.832;16.838;2022-12-18T06:59:04;2.60;94.60
32366;DHT22;18837;46.832;16.838;2022-12-18T07:01:35;2.60;95.00
32366;DHT22;18837;46.832;16.838;2022-12-18T07:04:07;2.60;95.00
32366;DHT22;18837;46.832;16.838;2022-12-18T07:06:32;2.60;94.90
32366;DHT22;18837;46.832;16.838;2022-12-18T07:12:31;2.50;95.40
32366;DHT22;18837;46.832;16.838;2022-12-18T07:14:56;2.50;95.30
32366;DHT22;18837;46.832;16.838;2022-12-18T07:17:22;2.40;94.90
32366;DHT22;18837;46.832;16.838;2022-12-18T07:19:48;2.40;95.10
32366;DHT22;18837;46.832;16.838;2022-12-18T07:22:17;2.40;94.90
32366;DHT22;18837;46.832;16.838;2022-12-18T07:24:44;2.50;95.00
32366;DHT22;18837;46.832;16.838;2022-12-18T07:27:10;2.50;95.30
32366;DHT22;18837;46.832;16.838;2022-12-18T07:29:36;2.40;94.70
32366;DHT22;18837;46.832;16.838;2022-12-18T07:32:05;2.40;95.10
32366;DHT22;18837;46.832;16.838;2022-12-18T07:34:35;2.30;94.80
32366;DHT22;18837;46.832;16.838;2022-12-18T07:37:01;2.30;95.20
32366;DHT22;18837;46.832;16.838;2022-12-18T07:39:29;2.30;94.90
32366;DHT22;18837;46.832;16.838;2022-12-18T07:45:55;2.30;95.60
32366;DHT22;18837;46.832;16.838;2022-12-18T07:48:21;2.30;95.80
32366;DHT22;18837;46.832;16.838;2022-12-18T07:50:47;2.30;95.20
32366;DHT22;18837;46.832;16.838;2022-12-18T07:53:13;2.30;95.30
32366;DHT22;18837;46.832;16.838;2022-12-18T07:55:45;2.30;95.20
32366;DHT22;18837;46.832;16.838;2022-12-18T07:58:11;2.30;95.60
32366;DHT22;18837;46.832;16.838;2022-12-18T08:00:39;2.20;95.40
32366;DHT22;18837;46.832;16.838;2022-12-18T08:03:05;2.30;95.20
32366;DHT22;18837;46.832;16.838;2022-12-18T08:05:30;2.40;95.20
32366;DHT22;18837;46.832;16.838;2022-12-18T08:07:58;2.50;95.10
32366;DHT22;18837;46.832;16.838;2022-12-18T08:10:24;2.50;95.00
32366;DHT22;18837;46.832;16.838;2022-12-18T08:12:51;2.50;95.00
32366;DHT22;18837;46.832;16.838;2022-12-18T08:15:23;2.50;94.80
32366;DHT22;18837;46.832;16.838;2022-12-18T08:18:10;2.40;95.20
32366;DHT22;18837;46.832;16.838;2022-12-18T08:20:36;2.40;95.70
32366;DHT22;18837;46.832;16.838;2022-12-18T08:23:02;2.30;95.10
32366;DHT22;18837;46.832;16.838;2022-12-18T08:25:28;2.20;95.40
32366;DHT22;18837;46.832;16.838;2022-12-18T08:27:54;2.30;95.50
32366;DHT22;18837;46.832;16.838;2022-12-18T08:30:22;2.20;95.40
32366;DHT22;18837;46.832;16.838;2022-12-18T08:36:38;2.20;96.10
32366;DHT22;18837;46.832;16.838;2022-12-18T08:39:04;2.20;95.90
32366;DHT22;18837;46.832;16.838;2022-12-18T08:41:30;2.20;95.80
32366;DHT22;18837;46.832;16.838;2022-12-18T08:43:56;2.10;95.60
32366;DHT22;18837;46.832;16.838;2022-12-18T08:46:43;2.10;96.00
32366;DHT22;18837;46.832;16.838;2022-12-18T08:49:14;2.10;96.00
32366;DHT22;18837;46.832;16.838;2022-12-18T08:52:02;2.10;96.30
32366;DHT22;18837;46.832;16.838;2022-12-18T08:54:28;2.10;96.40
32366;DHT22;18837;46.832;16.838;2022-12-18T08:56:54;2.10;96.10
32366;DHT22;18837;46.832;16.838;2022-12-18T08:59:20;2.10;96.10
32366;DHT22;18837;46.832;16.838;2022-12-18T09:01:53;2.10;96.10
32366;DHT22;18837;46.832;16.838;2022-12-18T09:04:22;2.20;96.20
32366;DHT22;18837;46.832;16.838;2022-12-18T09:10:47;2.20;96.50
32366;DHT22;18837;46.832;16.838;2022-12-18T09:13:14;2.20;96.20
32366;DHT22;18837;46.832;16.838;2022-12-18T09:15:54;2.20;96.20
32366;DHT22;18837;46.832;16.838;2022-12-18T09:18:22;2.20;96.20
32366;DHT22;18837;46.832;16.838;2022-12-18T09:20:48;2.30;96.00
32366;DHT22;18837;46.832;16.838;2022-12-18T09:23:15;2.20;96.10
32366;DHT22;18837;46.832;16.838;2022-12-18T09:26:03;2.20;96.10
32366;DHT22;18837;46.832;16.838;2022-12-18T09:28:31;2.20;96.70
32366;DHT22;18837;46.832;16.838;2022-12-18T09:30:57;2.20;96.30
32366;DHT22;18837;46.832;16.838;2022-12-18T09:33:27;2.20;96.30
32366;DHT22;18837;46.832;16.838;2022-12-18T09:35:53;2.20;96.50
32366;DHT22;18837;46.832;16.838;2022-12-18T09:38:19;2.20;96.40
32366;DHT22;18837;46.832;16.838;2022-12-18T09:47:33;2.30;96.80
32366;DHT22;18837;46.832;16.838;2022-12-18T09:50:23;2.30;96.80
32366;DHT22;18837;46.832;16.838;2022-12-18T09:52:54;2.30;96.60
32366;DHT22;18837;46.832;16.838;2022-12-18T09:55:36;2.30;96.50
32366;DHT22;18837;46.832;16.838;2022-12-18T09:58:11;2.30;96.60
32366;DHT22;18837;46.832;16.838;2022-12-18T10:00:58;2.30;96.70
32366;DHT22;18837;46.832;16.838;2022-12-18T10:03:24;2.30;97.00
32366;DHT22;18837;46.832;16.838;2022-12-18T10:06:24;2.30;96.60
32366;DHT22;18837;46.832;16.838;2022-12-18T10:09:00;2.50;97.00
32366;DHT22;18837;46.832;16.838;2022-12-18T10:21:21;2.30;97.20
32366;DHT22;18837;46.832;16.838;2022-12-18T10:26:36;2.30;97.10
32366;DHT22;18837;46.832;16.838;2022-12-18T10:29:14;2.30;96.70
32366;DHT22;18837;46.832;16.838;2022-12-18T10:31:40;2.30;96.80
32366;DHT22;18837;46.832;16.838;2022-12-18T10:34:27;2.30;96.80
32366;DHT22;18837;46.832;16.838;2022-12-18T10:36:54;2.30;97.30
32366;DHT22;18837;46.832;16.838;2022-12-18T10:39:24;2.40;96.90
32366;DHT22;18837;46.832;16.838;2022-12-18T10:42:19;2.40;97.00
32366;DHT22;18837;46.832;16.838;2022-12-18T10:44:45;2.50;97.20
32366;DHT22;18837;46.832;16.838;2022-12-18T10:47:15;3.00;96.60
32366;DHT22;18837;46.832;16.838;2022-12-18T10:53:39;2.50;96.90
32366;DHT22;18837;46.832;16.838;2022-12-18T10:56:06;2.50;96.80
32366;DHT22;18837;46.832;16.838;2022-12-18T10:58:36;2.50;96.60
32366;DHT22;18837;46.832;16.838;2022-12-18T11:01:12;2.50;96.90
32366;DHT22;18837;46.832;16.838;2022-12-18T11:03:40;2.50;97.00
32366;DHT22;18837;46.832;16.838;2022-12-18T11:06:15;2.50;96.70
32366;DHT22;18837;46.832;16.838;2022-12-18T11:09:04;3.30;97.00
32366;DHT22;18837;46.832;16.838;2022-12-18T11:11:31;2.40;97.20
32366;DHT22;18837;46.832;16.838;2022-12-18T11:14:15;2.50;96.80
32366;DHT22;18837;46.832;16.838;2022-12-18T11:16:49;2.40;96.90
32366;DHT22;18837;46.832;16.838;2022-12-18T11:19:34;2.40;96.90
32366;DHT22;18837;46.832;16.838;2022-12-18T11:22:03;2.50;97.20
32366;DHT22;18837;46.832;16.838;2022-12-18T11:25:01;2.50;96.80
32366;DHT22;18837;46.832;16.838;2022-12-18T11:31:25;2.50;97.20
32366;DHT22;18837;46.832;16.838;2022-12-18T11:34:22;2.50;97.20
32366;DHT22;18837;46.832;16.838;2022-12-18T11:36:50;2.50;97.20
32366;DHT22;18837;46.832;16.838;2022-12-18T11:41:59;2.50;97.20
32366;DHT22;18837;46.832;16.838;2022-12-18T11:50:05;2.50;96.90
32366;DHT22;18837;46.832;16.838;2022-12-18T11:52:39;2.50;96.80
32366;DHT22;18837;46.832;16.838;2022-12-18T11:55:15;2.50;97.00
32366;DHT22;18837;46.832;16.838;2022-12-18T12:00:31;2.60;96.80
32366;DHT22;18837;46.832;16.838;2022-12-18T12:03:39;2.60;97.30
32366;DHT22;18837;46.832;16.838;2022-12-18T12:29:55;2.60;97.30
32366;DHT22;18837;46.832;16.838;2022-12-18T12:38:12;2.60;97.40
32366;DHT22;18837;46.832;16.838;2022-12-18T12:40:49;2.60;96.80
32366;DHT22;18837;46.832;16.838;2022-12-18T12:43:44;2.60;96.40
32366;DHT22;18837;46.832;16.838;2022-12-18T12:46:14;2.60;96.50
32366;DHT22;18837;46.832;16.838;2022-12-18T12:48:57;2.60;96.50
32366;DHT22;18837;46.832;16.838;2022-12-18T12:51:35;2.60;96.80
32366;DHT22;18837;46.832;16.838;2022-12-18T12:54:11;2.60;96.80
32366;DHT22;18837;46.832;16.838;2022-12-18T12:57:18;2.60;96.60
32366;DHT22;18837;46.832;16.838;2022-12-18T13:03:04;2.60;96.80
32366;DHT22;18837;46.832;16.838;2022-12-18T13:05:34;2.60;97.00
32366;DHT22;18837;46.832;16.838;2022-12-18T13:12:09;2.60;97.10
32366;DHT22;18837;46.832;16.838;2022-12-18T13:15:21;2.60;97.10
32366;DHT22;18837;46.832;16.838;2022-12-18T13:17:48;2.60;96.70
32366;DHT22;18837;46.832;16.838;2022-12-18T13:20:15;3.20;96.80
32366;DHT22;18837;46.832;16.838;2022-12-18T13:22:47;2.60;96.70
32366;DHT22;18837;46.832;16.838;2022-12-18T13:28:16;2.60;97.00
32366;DHT22;18837;46.832;16.838;2022-12-18T13:30:54;2.60;96.70
32366;DHT22;18837;46.832;16.838;2022-12-18T13:41:38;2.60;97.10
32366;DHT22;18837;46.832;16.838;2022-12-18T13:47:44;2.60;97.20
32366;DHT22;18837;46.832;16.838;2022-12-18T13:50:22;2.60;96.80
32366;DHT22;18837;46.832;16.838;2022-12-18T13:52:50;2.70;96.90
32366;DHT22;18837;46.832;16.838;2022-12-18T13:55:20;2.90;96.60
32366;DHT22;18837;46.832;16.838;2022-12-18T13:57:49;3.00;96.60
32366;DHT22;18837;46.832;16.838;2022-12-18T14:02:57;3.30;96.70
32366;DHT22;18837;46.832;16.838;2022-12-18T14:05:31;3.40;96.20
32366;DHT22;18837;46.832;16.838;2022-12-18T14:08:06;3.50;96.20
32366;DHT22;18837;46.832;16.838;2022-12-18T14:10:33;3.60;96.40
32366;DHT22;18837;46.832;16.838;2022-12-18T14:13:06;3.70;95.90
32366;DHT22;18837;46.832;16.838;2022-12-18T14:15:42;3.80;95.80
32366;DHT22;18837;46.832;16.838;2022-12-18T14:21:44;3.90;96.10
32366;DHT22;18837;46.832;16.838;2022-12-18T14:24:16;4.00;95.50
32366;DHT22;18837;46.832;16.838;2022-12-18T14:26:43;4.00;95.50
32366;DHT22;18837;46.832;16.838;2022-12-18T14:29:25;4.00;95.70
32366;DHT22;18837;46.832;16.838;2022-12-18T14:32:13;4.10;95.30
32366;DHT22;18837;46.832;16.838;2022-12-18T14:34:41;4.10;95.20
32366;DHT22;18837;46.832;16.838;2022-12-18T14:37:27;4.20;95.30
32366;DHT22;18837;46.832;16.838;2022-12-18T14:39:58;4.20;95.10
32366;DHT22;18837;46.832;16.838;2022-12-18T14:42:29;4.20;94.80
32366;DHT22;18837;46.832;16.838;2022-12-18T14:45:55;4.10;94.90
32366;DHT22;18837;46.832;16.838;2022-12-18T14:48:07;4.20;95.40
32366;DHT22;18837;46.832;16.838;2022-12-18T14:50:33;4.20;95.10
32366;DHT22;18837;46.832;16.838;2022-12-18T14:56:34;4.10;95.50
32366;DHT22;18837;46.832;16.838;2022-12-18T14:59:03;4.10;95.50
32366;DHT22;18837;46.832;16.838;2022-12-18T15:01:37;4.10;95.10
32366;DHT22;18837;46.832;16.838;2022-12-18T15:04:19;4.10;95.10
32366;DHT22;18837;46.832;16.838;2022-12-18T15:06:48;4.10;95.10
32366;DHT22;18837;46.832;16.838;2022-12-18T15:09:25;4.10;95.30
32366;DHT22;18837;46.832;16.838;2022-12-18T15:12:01;4.00;95.10
32366;DHT22;18837;46.832;16.838;2022-12-18T15:14:53;4.00;95.20
32366;DHT22;18837;46.832;16.838;2022-12-18T15:17:23;4.00;95.30
32366;DHT22;18837;46.832;16.838;2022-12-18T15:19:53;4.00;95.10
32366;DHT22;18837;46.832;16.838;2022-12-18T15:22:27;3.90;95.10
32366;DHT22;18837;46.832;16.838;2022-12-18T15:24:54;3.90;95.20
32366;DHT22;18837;46.832;16.838;2022-12-18T15:27:54;3.90;95.20
32366;DHT22;18837;46.832;16.838;2022-12-18T15:30:24;3.90;95.80
32366;DHT22;18837;46.832;16.838;2022-12-18T15:32:51;3.90;95.20
32366;DHT22;18837;46.832;16.838;2022-12-18T15:35:24;3.90;95.20
32366;DHT22;18837;46.832;16.838;2022-12-18T15:37:51;3.90;95.30
32366;DHT22;18837;46.832;16.838;2022-12-18T15:40:21;3.90;95.10
32366;DHT22;18837;46.832;16.838;2022-12-18T15:42:48;3.90;95.10
32366;DHT22;18837;46.832;16.838;2022-12-18T15:45:47;3.90;95.10
32366;DHT22;18837;46.832;16.838;2022-12-18T15:48:22;3.90;95.20
32366;DHT22;18837;46.832;16.838;2022-12-18T15:50:50;3.90;95.40
32366;DHT22;18837;46.832;16.838;2022-12-18T15:53:19;3.90;95.00
32366;DHT22;18837;46.832;16.838;2022-12-18T15:55:45;3.90;95.00
32366;DHT22;18837;46.832;16.838;2022-12-18T15:58:30;3.90;95.20
32366;DHT22;18837;46.832;16.838;2022-12-18T16:01:28;3.80;95.30
32366;DHT22;18837;46.832;16.838;2022-12-18T16:04:50;3.80;95.50
32366;DHT22;18837;46.832;16.838;2022-12-18T16:07:20;3.80;95.50
32366;DHT22;18837;46.832;16.838;2022-12-18T16:09:46;3.70;95.00
32366;DHT22;18837;46.832;16.838;2022-12-18T16:12:21;3.70;95.10
32366;DHT22;18837;46.832;16.838;2022-12-18T16:14:48;3.70;95.20
32366;DHT22;18837;46.832;16.838;2022-12-18T16:17:15;3.60;95.10
32366;DHT22;18837;46.832;16.838;2022-12-18T16:20:02;3.60;95.10
32366;DHT22;18837;46.832;16.838;2022-12-18T16:22:29;3.60;95.60
32366;DHT22;18837;46.832;16.838;2022-12-18T16:24:56;3.70;95.30
32366;DHT22;18837;46.832;16.838;2022-12-18T16:27:23;3.60;95.10
32366;DHT22;18837;46.832;16.838;2022-12-18T16:29:49;3.60;94.90
32366;DHT22;18837;46.832;16.838;2022-12-18T16:32:18;3.60;95.00
32366;DHT22;18837;46.832;16.838;2022-12-18T16:35:22;3.50;95.30
32366;DHT22;18837;46.832;16.838;2022-12-18T16:41:18;3.50;95.60
32366;DHT22;18837;46.832;16.838;2022-12-18T16:43:56;3.50;95.30
32366;DHT22;18837;46.832;16.838;2022-12-18T16:46:22;3.40;95.30
32366;DHT22;18837;46.832;16.838;2022-12-18T16:48:50;3.40;95.20
32366;DHT22;18837;46.832;16.838;2022-12-18T16:51:16;3.40;95.50
32366;DHT22;18837;46.832;16.838;2022-12-18T16:53:41;3.40;95.30
32366;DHT22;18837;46.832;16.838;2022-12-18T16:56:16;3.40;95.30
32366;DHT22;18837;46.832;16.838;2022-12-18T16:58:42;3.40;95.30
32366;DHT22;18837;46.832;16.838;2022-12-18T17:01:10;3.40;95.00
32366;DHT22;18837;46.832;16.838;2022-12-18T17:03:36;3.40;95.10
32366;DHT22;18837;46.832;16.838;2022-12-18T17:06:03;3.40;95.00
32366;DHT22;18837;46.832;16.838;2022-12-18T17:08:30;3.40;95.10
32366;DHT22;18837;46.832;16.838;2022-12-18T17:14:27;3.40;95.70
32366;DHT22;18837;46.832;16.838;2022-12-18T17:16:54;3.30;95.70
32366;DHT22;18837;46.832;16.838;2022-12-18T17:19:22;3.30;95.10
32366;DHT22;18837;46.832;16.838;2022-12-18T17:21:49;3.30;95.20
32366;DHT22;18837;46.832;16.838;2022-12-18T17:24:19;3.20;95.20
32366;DHT22;18837;46.832;16.838;2022-12-18T17:26:46;3.20;95.40
32366;DHT22;18837;46.832;16.838;2022-12-18T17:29:31;3.20;95.40
32366;DHT22;18837;46.832;16.838;2022-12-18T17:31:57;3.20;95.50
32366;DHT22;18837;46.832;16.838;2022-12-18T17:34:23;3.10;95.40
32366;DHT22;18837;46.832;16.838;2022-12-18T17:36:49;3.10;95.40
32366;DHT22;18837;46.832;16.838;2022-12-18T17:39:17;3.10;95.40
32366;DHT22;18837;46.832;16.838;2022-12-18T17:41:44;3.10;95.60
32366;DHT22;18837;46.832;16.838;2022-12-18T17:44:28;3.10;95.80
32366;DHT22;18837;46.832;16.838;2022-12-18T17:47:18;3.10;95.80
32366;DHT22;18837;46.832;16.838;2022-12-18T17:50:22;3.00;96.30
32366;DHT22;18837;46.832;16.838;2022-12-18T17:52:48;3.00;95.80
32366;DHT22;18837;46.832;16.838;2022-12-18T17:55:14;3.00;95.70
32366;DHT22;18837;46.832;16.838;2022-12-18T17:57:40;3.00;95.90
32366;DHT22;18837;46.832;16.838;2022-12-18T18:00:06;3.00;95.70
32366;DHT22;18837;46.832;16.838;2022-12-18T18:02:32;3.00;95.70
32366;DHT22;18837;46.832;16.838;2022-12-18T18:05:11;3.00;95.60
32366;DHT22;18837;46.832;16.838;2022-12-18T18:07:37;3.00;95.90
32366;DHT22;18837;46.832;16.838;2022-12-18T18:10:05;3.00;95.50
32366;DHT22;18837;46.832;16.838;2022-12-18T18:12:32;3.00;95.60
32366;DHT22;18837;46.832;16.838;2022-12-18T18:15:16;3.00;95.60
32366;DHT22;18837;46.832;16.838;2022-12-18T18:17:42;3.00;95.50
32366;DHT22;18837;46.832;16.838;2022-12-18T18:23:36;3.00;96.20
32366;DHT22;18837;46.832;16.838;2022-12-18T18:26:06;2.90;96.20
32366;DHT22;18837;46.832;16.838;2022-12-18T18:28:33;2.90;95.70
32366;DHT22;18837;46.832;16.838;2022-12-18T18:31:04;2.90;95.60
32366;DHT22;18837;46.832;16.838;2022-12-18T18:33:33;2.90;95.80
32366;DHT22;18837;46.832;16.838;2022-12-18T18:36:01;2.90;96.00
32366;DHT22;18837;46.832;16.838;2022-12-18T18:38:46;2.90;95.80
32366;DHT22;18837;46.832;16.838;2022-12-18T18:41:12;2.90;96.10
32366;DHT22;18837;46.832;16.838;2022-12-18T18:43:38;2.80;95.70
32366;DHT22;18837;46.832;16.838;2022-12-18T18:46:05;2.80;95.80
32366;DHT22;18837;46.832;16.838;2022-12-18T18:48:35;2.80;95.80
32366;DHT22;18837;46.832;16.838;2022-12-18T18:51:06;2.80;95.80
32366;DHT22;18837;46.832;16.838;2022-12-18T18:53:37;2.80;95.80
32366;DHT22;18837;46.832;16.838;2022-12-18T18:56:34;2.80;95.80
32366;DHT22;18837;46.832;16.838;2022-12-18T18:59:25;2.80;96.20
32366;DHT22;18837;46.832;16.838;2022-12-18T19:02:02;2.80;96.00
32366;DHT22;18837;46.832;16.838;2022-12-18T19:04:28;2.90;95.60
32366;DHT22;18837;46.832;16.838;2022-12-18T19:06:53;2.90;95.50
32366;DHT22;18837;46.832;16.838;2022-12-18T19:09:20;3.00;95.40
32366;DHT22;18837;46.832;16.838;2022-12-18T19:11:49;2.90;95.60
32366;DHT22;18837;46.832;16.838;2022-12-18T19:14:39;2.80;95.50
32366;DHT22;18837;46.832;16.838;2022-12-18T19:17:05;2.80;95.50